createdAt,value
2023-04-27T00:00:22.879Z,99801.63
2023-04-27T00:02:54.212Z,99793.28
2023-04-27T00:05:28.406Z,99796.69
2023-04-27T00:08:00.435Z,99790.03
2023-04-27T00:10:31.589Z,99792.50
2023-04-27T00:13:06.244Z,99793.41
2023-04-27T00:15:35.387Z,99797.22
2023-04-27T00:18:13.644Z,99788.63
2023-04-27T00:20:42.120Z,99794.91
2023-04-27T00:23:14.174Z,99788.22
2023-04-27T00:25:45.982Z,99782.66
2023-04-27T00:28:20.618Z,99789.84
2023-04-27T00:31:02.602Z,99786.06
2023-04-27T00:33:32.255Z,99778.59
2023-04-27T00:36:01.731Z,99785.09
2023-04-27T00:38:34.032Z,99786.97
2023-04-27T00:41:03.838Z,99790.25
2023-04-27T00:43:42.219Z,99796.25
2023-04-27T00:46:14.014Z,99787.06
2023-04-27T00:48:45.946Z,99784.44
2023-04-27T00:51:15.369Z,99780.53
2023-04-27T00:53:47.975Z,99768.59
2023-04-27T00:56:24.668Z,99775.59
2023-04-27T00:59:02.501Z,99783.28
2023-04-27T01:01:31.156Z,99777.38
2023-04-27T01:04:01.554Z,99780.03
2023-04-27T01:06:36.887Z,99774.81
2023-04-27T01:09:18.873Z,99774.31
2023-04-27T01:11:49.256Z,99777.06
2023-04-27T01:14:32.820Z,99780.09
2023-04-27T01:17:03.308Z,99777.75
2023-04-27T01:19:33.537Z,99783.34
2023-04-27T01:22:07.162Z,99780.50
2023-04-27T01:24:42.860Z,99776.84
2023-04-27T01:27:17.483Z,99777.22
2023-04-27T01:29:55.751Z,99780.28
2023-04-27T01:32:31.448Z,99784.66
2023-04-27T01:35:03.154Z,99789.50
2023-04-27T01:37:35.264Z,99791.75
2023-04-27T01:40:07.390Z,99784.94
2023-04-27T01:42:39.225Z,99792.16
2023-04-27T01:45:12.893Z,99788.66
2023-04-27T01:47:49.964Z,99796.56
2023-04-27T01:50:27.134Z,99791.28
2023-04-27T01:52:59.248Z,99792.75
2023-04-27T01:55:44.528Z,99794.78
2023-04-27T01:58:26.633Z,99792.06
2023-04-27T02:01:02.479Z,99790.47
2023-04-27T02:03:36.776Z,99788.63
2023-04-27T02:06:09.842Z,99798.97
2023-04-27T02:08:39.194Z,99791.34
2023-04-27T02:11:12.590Z,99795.25
2023-04-27T02:13:43.509Z,99794.16
2023-04-27T02:16:12.238Z,99796.16
2023-04-27T02:18:56.091Z,99800.19
2023-04-27T02:21:37.338Z,99800.78
2023-04-27T02:24:07.877Z,99799.25
2023-04-27T02:26:48.315Z,99803.84
2023-04-27T02:29:22.991Z,99797.44
2023-04-27T02:31:54.709Z,99811.50
2023-04-27T02:34:32.002Z,99806.75
2023-04-27T02:37:00.762Z,99804.22
2023-04-27T02:39:30.881Z,99801.84
2023-04-27T02:42:04.322Z,99802.53
2023-04-27T02:44:38.363Z,99794.97
2023-04-27T02:47:09.442Z,99800.84
2023-04-27T02:49:38.918Z,99806.41
2023-04-27T02:52:07.780Z,99807.13
2023-04-27T02:54:39.368Z,99803.66
2023-04-27T02:57:14.208Z,99813.81
2023-04-27T02:59:55.370Z,99810.41
2023-04-27T03:02:26.311Z,99794.84
2023-04-27T03:04:57.846Z,99811.03
2023-04-27T03:07:29.279Z,99815.75
2023-04-27T03:09:58.846Z,99813.69
2023-04-27T03:12:31.060Z,99823.25
2023-04-27T03:15:01.171Z,99815.16
2023-04-27T03:17:30.397Z,99810.06
2023-04-27T03:20:00.241Z,99811.84
2023-04-27T03:22:30.942Z,99812.97
2023-04-27T03:25:03.306Z,99820.69
2023-04-27T03:27:38.778Z,99815.59
2023-04-27T03:30:16.870Z,99814.41
2023-04-27T03:32:47.867Z,99815.63
2023-04-27T03:35:27.651Z,99819.94
2023-04-27T03:37:59.757Z,99819.31
2023-04-27T03:40:30.362Z,99817.75
2023-04-27T03:43:04.137Z,99824.53
2023-04-27T03:45:33.716Z,99822.50
2023-04-27T03:48:02.312Z,99823.06
2023-04-27T03:50:39.513Z,99827.69
2023-04-27T03:53:10.849Z,99827.94
2023-04-27T03:55:42.442Z,99831.81
2023-04-27T03:58:20.567Z,99835.06
2023-04-27T04:01:22.182Z,99838.69
2023-04-27T04:03:54.523Z,99840.63
2023-04-27T04:06:26.569Z,99834.22
2023-04-27T04:09:02.924Z,99835.75
2023-04-27T04:11:31.674Z,99845.19
2023-04-27T04:14:06.400Z,99838.91
2023-04-27T04:16:38.558Z,99841.81
2023-04-27T04:19:10.041Z,99843.59
2023-04-27T04:21:41.713Z,99845.78
2023-04-27T04:24:11.406Z,99846.63
2023-04-27T04:26:42.586Z,99839.75
2023-04-27T04:29:23.630Z,99843.59
2023-04-27T04:31:59.355Z,99844.84
2023-04-27T04:34:33.447Z,99844.63
2023-04-27T04:37:05.975Z,99852.75
2023-04-27T04:39:35.844Z,99847.50
2023-04-27T04:42:07.487Z,99848.56
2023-04-27T04:44:38.786Z,99853.75
2023-04-27T04:47:07.889Z,99853.25
2023-04-27T04:49:37.133Z,99848.91
2023-04-27T04:52:09.235Z,99854.50
2023-04-27T04:54:41.543Z,99849.28
2023-04-27T04:57:15.389Z,99858.44
2023-04-27T04:59:51.455Z,99855.22
2023-04-27T05:02:29.062Z,99853.13
2023-04-27T05:04:58.876Z,99856.97
2023-04-27T05:07:32.830Z,99859.63
2023-04-27T05:10:02.536Z,99862.19
2023-04-27T05:12:33.899Z,99861.31
2023-04-27T05:15:06.234Z,99862.47
2023-04-27T05:17:36.762Z,99862.97
2023-04-27T05:20:07.942Z,99865.50
2023-04-27T05:22:50.328Z,99870.16
2023-04-27T05:25:29.105Z,99865.66
2023-04-27T05:27:59.850Z,99861.94
2023-04-27T05:30:38.197Z,99872.47
2023-04-27T05:33:07.073Z,99868.78
2023-04-27T05:35:39.527Z,99860.13
2023-04-27T05:38:11.103Z,99868.13
2023-04-27T05:40:42.903Z,99867.63
2023-04-27T05:43:13.675Z,99879.63
2023-04-27T05:45:50.696Z,99874.75
2023-04-27T05:48:19.823Z,99875.03
2023-04-27T05:50:49.279Z,99890.94
2023-04-27T05:53:17.858Z,99889.31
2023-04-27T05:55:49.687Z,99885.47
2023-04-27T05:58:28.355Z,99890.53
2023-04-27T06:01:04.794Z,99893.91
2023-04-27T06:03:36.132Z,99887.59
2023-04-27T06:06:13.558Z,99895.19
2023-04-27T06:08:47.270Z,99899.00
2023-04-27T06:11:19.177Z,99898.97
2023-04-27T06:13:48.007Z,99905.13
2023-04-27T06:16:24.127Z,99901.22
2023-04-27T06:18:52.886Z,99903.66
2023-04-27T06:21:22.325Z,99907.59
2023-04-27T06:23:55.111Z,99904.38
2023-04-27T06:26:29.067Z,99908.22
2023-04-27T06:29:02.245Z,99915.38
2023-04-27T06:31:47.848Z,99911.88
2023-04-27T06:34:16.466Z,99913.31
2023-04-27T06:36:55.823Z,99917.19
2023-04-27T06:39:25.178Z,99911.19
2023-04-27T06:41:55.832Z,99920.53
2023-04-27T06:44:30.187Z,99913.94
2023-04-27T06:47:02.205Z,99917.91
2023-04-27T06:49:31.540Z,99920.31
2023-04-27T06:52:03.717Z,99914.72
2023-04-27T06:54:34.255Z,99923.47
2023-04-27T06:57:11.011Z,99917.84
2023-04-27T06:59:42.749Z,99922.75
2023-04-27T07:02:17.689Z,99918.00
2023-04-27T07:04:48.728Z,99916.56
2023-04-27T07:07:26.792Z,99905.59
2023-04-27T07:10:11.337Z,99908.81
2023-04-27T07:12:41.642Z,99911.81
2023-04-27T07:15:15.158Z,99903.66
2023-04-27T07:17:49.437Z,99901.69
2023-04-27T07:20:23.231Z,99909.41
2023-04-27T07:22:51.552Z,99903.34
2023-04-27T07:25:31.818Z,99904.44
2023-04-27T07:28:06.075Z,99903.31
2023-04-27T07:30:44.388Z,99890.94
2023-04-27T07:33:16.490Z,99897.00
2023-04-27T07:35:53.331Z,99899.66
2023-04-27T07:38:22.092Z,99901.59
2023-04-27T07:40:51.409Z,99905.72
2023-04-27T07:43:23.789Z,99908.81
2023-04-27T07:45:54.576Z,99913.28
2023-04-27T07:48:25.584Z,99907.13
2023-04-27T07:51:02.503Z,99909.00
2023-04-27T07:53:31.672Z,99902.44
2023-04-27T07:56:01.202Z,99910.84
2023-04-27T07:58:31.984Z,99905.00
2023-04-27T08:01:01.701Z,99909.00
2023-04-27T08:03:40.132Z,99907.34
2023-04-27T08:06:12.226Z,99908.19
2023-04-27T08:08:43.038Z,99916.28
2023-04-27T08:11:13.867Z,99909.88
2023-04-27T08:13:44.250Z,99912.34
2023-04-27T08:16:15.216Z,99909.25
2023-04-27T08:18:47.246Z,99910.19
2023-04-27T08:21:23.938Z,99909.69
2023-04-27T08:23:55.133Z,99913.66
2023-04-27T08:26:26.254Z,99914.25
2023-04-27T08:29:15.318Z,99907.16
2023-04-27T08:31:48.806Z,99914.41
2023-04-27T08:34:30.762Z,99921.81
2023-04-27T08:37:04.506Z,99921.34
2023-04-27T08:39:41.520Z,99920.19
2023-04-27T08:42:17.491Z,99921.84
2023-04-27T08:44:47.171Z,99909.28
2023-04-27T08:47:16.083Z,99918.13
2023-04-27T08:49:47.140Z,99918.28
2023-04-27T08:52:19.616Z,99925.38
2023-04-27T08:54:47.833Z,99917.44
2023-04-27T08:57:21.884Z,99921.25
2023-04-27T09:00:02.184Z,99921.56
2023-04-27T09:02:34.039Z,99925.34
2023-04-27T09:05:07.112Z,99921.06
2023-04-27T09:07:36.765Z,99916.78
2023-04-27T09:10:11.326Z,99915.72
2023-04-27T09:12:44.015Z,99904.59
2023-04-27T09:15:13.089Z,99911.50
2023-04-27T09:17:42.401Z,99913.94
2023-04-27T09:20:13.834Z,99906.94
2023-04-27T09:22:48.917Z,99917.94
2023-04-27T09:25:26.473Z,99909.66
2023-04-27T09:27:59.536Z,99911.22
2023-04-27T09:30:31.952Z,99911.44
2023-04-27T09:33:03.194Z,99914.19
2023-04-27T09:35:34.506Z,99915.41
2023-04-27T09:38:04.129Z,99909.28
2023-04-27T09:40:33.651Z,99902.31
2023-04-27T09:43:07.529Z,99913.97
2023-04-27T09:45:35.938Z,99915.88
2023-04-27T09:48:08.355Z,99913.03
2023-04-27T09:50:47.011Z,99900.81
2023-04-27T09:53:25.128Z,99894.34
2023-04-27T09:56:04.463Z,99897.81
2023-04-27T09:59:11.545Z,99890.34
2023-04-27T10:01:44.216Z,99892.56
2023-04-27T10:04:28.284Z,99891.41
2023-04-27T10:07:05.795Z,99879.75
2023-04-27T10:09:44.803Z,99886.78
2023-04-27T10:12:22.195Z,99885.34
2023-04-27T10:14:57.352Z,99889.28
2023-04-27T10:17:37.778Z,99881.16
2023-04-27T10:20:11.927Z,99877.19
2023-04-27T10:22:46.207Z,99871.75
2023-04-27T10:25:18.367Z,99864.25
2023-04-27T10:27:52.296Z,99861.59
2023-04-27T10:30:24.189Z,99864.50
2023-04-27T10:32:57.661Z,99862.88
2023-04-27T10:35:34.752Z,99855.56
2023-04-27T10:38:33.555Z,99858.56
2023-04-27T10:41:05.253Z,99857.88
2023-04-27T10:43:36.366Z,99858.03
2023-04-27T10:46:12.046Z,99863.13
2023-04-27T10:48:42.674Z,99851.03
2023-04-27T10:51:13.554Z,99847.75
2023-04-27T10:53:46.465Z,99836.16
2023-04-27T10:56:20.789Z,99848.41
2023-04-27T10:59:01.989Z,99839.91
2023-04-27T11:01:30.863Z,99833.06
2023-04-27T11:04:08.351Z,99836.75
2023-04-27T11:06:44.001Z,99842.44
2023-04-27T11:09:16.710Z,99839.75
2023-04-27T11:11:46.868Z,99841.44
2023-04-27T11:14:23.552Z,99843.63
2023-04-27T11:16:54.489Z,99843.97
2023-04-27T11:19:25.891Z,99841.78
2023-04-27T11:22:07.226Z,99840.44
2023-04-27T11:24:49.471Z,99837.38
2023-04-27T11:27:25.458Z,99832.31
2023-04-27T11:29:54.888Z,99834.53
2023-04-27T11:32:25.399Z,99842.97
2023-04-27T11:34:57.209Z,99843.63
2023-04-27T11:37:28.825Z,99836.34
2023-04-27T11:40:05.059Z,99840.63
2023-04-27T11:42:35.452Z,99841.75
2023-04-27T11:45:09.156Z,99836.41
2023-04-27T11:47:42.698Z,99829.47
2023-04-27T11:50:12.330Z,99835.22
2023-04-27T11:52:44.150Z,99842.84
2023-04-27T11:55:24.667Z,99830.50
2023-04-27T11:58:02.297Z,99835.34
2023-04-27T12:00:32.783Z,99827.28
2023-04-27T12:03:05.051Z,99822.69
2023-04-27T12:05:36.979Z,99822.50
2023-04-27T12:08:08.596Z,99822.59
2023-04-27T12:10:42.401Z,99825.06
2023-04-27T12:13:10.920Z,99824.41
2023-04-27T12:15:40.836Z,99820.63
2023-04-27T12:18:19.575Z,99822.06
2023-04-27T12:20:49.202Z,99810.69
2023-04-27T12:23:25.831Z,99823.97
2023-04-27T12:25:56.906Z,99813.97
2023-04-27T12:28:27.676Z,99805.28
2023-04-27T12:30:58.467Z,99802.38
2023-04-27T12:33:27.299Z,99807.59
2023-04-27T12:35:57.996Z,99800.31
2023-04-27T12:38:28.096Z,99801.31
2023-04-27T12:41:00.131Z,99796.84
2023-04-27T12:43:28.296Z,99794.66
2023-04-27T12:46:00.364Z,99794.44
2023-04-27T12:48:29.478Z,99794.81
2023-04-27T12:50:59.247Z,99793.91
2023-04-27T12:53:31.498Z,99799.38
2023-04-27T12:56:07.918Z,99791.84
2023-04-27T12:58:36.668Z,99785.69
2023-04-27T13:01:07.860Z,99786.63
2023-04-27T13:03:36.414Z,99786.31
2023-04-27T13:06:08.305Z,99791.94
2023-04-27T13:08:39.209Z,99794.16
2023-04-27T13:11:12.486Z,99796.47
2023-04-27T13:13:46.062Z,99797.94
2023-04-27T13:16:23.245Z,99794.69
2023-04-27T13:19:01.015Z,99789.66
2023-04-27T13:21:30.649Z,99780.13
2023-04-27T13:24:01.032Z,99777.34
2023-04-27T13:26:38.343Z,99786.44
2023-04-27T13:29:08.265Z,99780.66
2023-04-27T13:31:37.699Z,99778.19
2023-04-27T13:34:09.004Z,99787.09
2023-04-27T13:36:44.070Z,99777.50
2023-04-27T13:39:13.333Z,99786.38
2023-04-27T13:41:47.296Z,99774.34
2023-04-27T13:44:20.763Z,99775.59
2023-04-27T13:46:51.461Z,99784.13
2023-04-27T13:49:30.174Z,99771.41
2023-04-27T13:51:59.532Z,99778.28
2023-04-27T13:54:31.189Z,99770.88
2023-04-27T13:57:03.463Z,99774.84
2023-04-27T13:59:40.563Z,99766.88
2023-04-27T14:02:10.993Z,99769.31
2023-04-27T14:04:41.698Z,99758.06
2023-04-27T14:07:11.474Z,99765.06
2023-04-27T14:09:40.123Z,99764.75
2023-04-27T14:12:17.570Z,99756.19
2023-04-27T14:14:54.142Z,99751.31
2023-04-27T14:17:24.873Z,99766.06
2023-04-27T14:19:55.905Z,99780.03
2023-04-27T14:22:25.229Z,99772.72
2023-04-27T14:24:54.141Z,99778.16
2023-04-27T14:27:37.851Z,99779.16
2023-04-27T14:30:23.055Z,99780.28
2023-04-27T14:32:52.487Z,99767.44
2023-04-27T14:35:23.795Z,99785.81
2023-04-27T14:37:52.249Z,99774.53
2023-04-27T14:40:21.756Z,99772.19
2023-04-27T14:43:07.022Z,99775.34
2023-04-27T14:45:50.187Z,99761.34
2023-04-27T14:48:26.887Z,99766.66
2023-04-27T14:50:57.491Z,99763.84
2023-04-27T14:53:33.999Z,99762.84
2023-04-27T14:56:03.288Z,99766.75
2023-04-27T14:58:38.758Z,99769.97
2023-04-27T15:01:18.433Z,99766.69
2023-04-27T15:03:53.346Z,99778.63
2023-04-27T15:06:24.053Z,99772.28
2023-04-27T15:08:56.298Z,99767.38
2023-04-27T15:11:26.019Z,99775.03
2023-04-27T15:14:07.418Z,99779.50
2023-04-27T15:16:41.628Z,99770.88
2023-04-27T15:19:10.426Z,99776.16
2023-04-27T15:21:42.025Z,99778.34
2023-04-27T15:24:14.584Z,99777.78
2023-04-27T15:26:48.228Z,99777.75
2023-04-27T15:29:26.109Z,99769.91
2023-04-27T15:31:58.149Z,99763.78
2023-04-27T15:34:28.371Z,99768.44
2023-04-27T15:36:58.973Z,99760.63
2023-04-27T15:39:28.293Z,99764.88
2023-04-27T15:41:59.659Z,99758.22
2023-04-27T15:44:29.752Z,99759.69
2023-04-27T15:47:02.278Z,99766.06
2023-04-27T15:49:39.812Z,99763.78
2023-04-27T15:52:15.324Z,99761.09
2023-04-27T15:54:49.159Z,99763.69
2023-04-27T15:57:19.762Z,99761.63
2023-04-27T15:59:51.795Z,99755.81
2023-04-27T16:02:26.794Z,99771.44
2023-04-27T16:04:57.875Z,99763.88
2023-04-27T16:07:29.736Z,99760.19
2023-04-27T16:10:00.750Z,99752.41
2023-04-27T16:12:33.295Z,99758.97
2023-04-27T16:15:04.237Z,99751.06
2023-04-27T16:17:36.826Z,99752.97
2023-04-27T16:20:09.680Z,99755.25
2023-04-27T16:22:44.698Z,99739.28
2023-04-27T16:25:17.876Z,99739.78
2023-04-27T16:27:55.844Z,99746.19
2023-04-27T16:30:31.846Z,99747.94
2023-04-27T16:33:03.178Z,99744.34
2023-04-27T16:35:39.025Z,99753.97
2023-04-27T16:38:08.693Z,99755.56
2023-04-27T16:40:39.721Z,99755.19
2023-04-27T16:43:09.105Z,99765.44
2023-04-27T16:45:41.924Z,99758.13
2023-04-27T16:48:12.529Z,99754.38
2023-04-27T16:50:47.005Z,99753.91
2023-04-27T16:53:22.117Z,99745.78
2023-04-27T16:55:58.814Z,99750.16
2023-04-27T16:58:43.418Z,99755.47
2023-04-27T17:01:20.804Z,99757.63
2023-04-27T17:03:56.882Z,99756.84
2023-04-27T17:06:32.529Z,99761.56
2023-04-27T17:09:06.364Z,99755.16
2023-04-27T17:11:36.710Z,99753.19
2023-04-27T17:14:06.350Z,99763.22
2023-04-27T17:16:48.188Z,99762.81
2023-04-27T17:19:23.359Z,99767.34
2023-04-27T17:21:53.336Z,99769.63
2023-04-27T17:24:24.768Z,99775.09
2023-04-27T17:26:56.626Z,99775.81
2023-04-27T17:29:34.136Z,99778.28
2023-04-27T17:32:16.074Z,99786.13
2023-04-27T17:34:47.520Z,99791.94
2023-04-27T17:37:19.545Z,99794.31
2023-04-27T17:39:53.688Z,99795.47
2023-04-27T17:42:23.253Z,99796.16
2023-04-27T17:44:51.971Z,99797.69
2023-04-27T17:47:30.486Z,99800.06
2023-04-27T17:50:01.881Z,99802.75
2023-04-27T17:52:31.456Z,99794.88
2023-04-27T17:54:59.576Z,99805.81
2023-04-27T17:57:28.959Z,99795.38
2023-04-27T18:00:08.603Z,99803.44
2023-04-27T18:02:43.784Z,99809.16
2023-04-27T18:05:12.722Z,99811.16
2023-04-27T18:07:53.867Z,99813.78
2023-04-27T18:10:24.962Z,99817.47
2023-04-27T18:12:56.086Z,99816.47
2023-04-27T18:15:26.450Z,99821.97
2023-04-27T18:18:00.790Z,99825.22
2023-04-27T18:20:35.368Z,99831.06
2023-04-27T18:23:04.141Z,99833.38
2023-04-27T18:25:32.428Z,99834.06
2023-04-27T18:28:05.993Z,99834.44
2023-04-27T18:30:34.903Z,99844.56
2023-04-27T18:33:05.710Z,99833.94
2023-04-27T18:35:36.800Z,99838.03
2023-04-27T18:38:13.917Z,99837.72
2023-04-27T18:40:45.384Z,99841.22
2023-04-27T18:43:22.506Z,99848.09
2023-04-27T18:45:59.672Z,99851.25
2023-04-27T18:48:30.895Z,99846.69
2023-04-27T18:51:04.288Z,99848.81
2023-04-27T18:53:34.073Z,99842.72
2023-04-27T18:56:03.459Z,99863.47
2023-04-27T18:58:34.558Z,99862.06
2023-04-27T19:01:12.503Z,99861.41
2023-04-27T19:03:58.284Z,99862.53
2023-04-27T19:06:33.820Z,99861.63
2023-04-27T19:09:20.341Z,99860.78
2023-04-27T19:12:02.950Z,99869.03
2023-04-27T19:14:40.537Z,99873.97
2023-04-27T19:17:22.725Z,99867.84
2023-04-27T19:19:56.718Z,99872.63
2023-04-27T19:22:39.559Z,99871.44
2023-04-27T19:25:19.911Z,99873.53
2023-04-27T19:28:01.447Z,99865.16
2023-04-27T19:30:32.590Z,99870.72
2023-04-27T19:33:04.325Z,99869.75
2023-04-27T19:35:36.457Z,99876.81
2023-04-27T19:38:17.648Z,99874.81
2023-04-27T19:40:52.450Z,99876.00
2023-04-27T19:43:29.372Z,99871.63
2023-04-27T19:45:58.055Z,99879.09
2023-04-27T19:48:36.581Z,99889.22
2023-04-27T19:51:15.851Z,99886.13
2023-04-27T19:53:52.301Z,99887.91
2023-04-27T19:56:22.797Z,99891.59
2023-04-27T19:58:53.431Z,99891.97
2023-04-27T20:01:33.857Z,99890.22
2023-04-27T20:04:04.080Z,99884.75
2023-04-27T20:06:35.330Z,99884.56
2023-04-27T20:09:05.361Z,99890.38
2023-04-27T20:11:36.208Z,99891.66
2023-04-27T20:14:14.527Z,99889.31
2023-04-27T20:16:44.639Z,99892.81
2023-04-27T20:19:17.847Z,99895.44
2023-04-27T20:21:52.154Z,99893.53
2023-04-27T20:24:20.845Z,99896.25
2023-04-27T20:26:49.213Z,99892.50
2023-04-27T20:29:20.211Z,99891.19
2023-04-27T20:31:50.528Z,99896.53
2023-04-27T20:34:21.390Z,99889.34
2023-04-27T20:37:05.515Z,99892.91
2023-04-27T20:39:36.261Z,99896.78
2023-04-27T20:42:13.473Z,99902.06
2023-04-27T20:44:55.018Z,99899.63
2023-04-27T20:47:23.958Z,99899.63
2023-04-27T20:50:01.285Z,99904.63
2023-04-27T20:52:38.609Z,99902.16
2023-04-27T20:55:08.469Z,99906.84
2023-04-27T20:57:39.379Z,99904.69
2023-04-27T21:00:10.635Z,99906.28
2023-04-27T21:02:39.784Z,99911.63
2023-04-27T21:05:11.605Z,99910.25
2023-04-27T21:07:42.056Z,99913.94
2023-04-27T21:10:19.609Z,99906.84
2023-04-27T21:12:48.927Z,99913.44
2023-04-27T21:15:29.957Z,99913.06
2023-04-27T21:18:00.907Z,99909.25
2023-04-27T21:20:34.208Z,99913.38
2023-04-27T21:23:22.278Z,99916.47
2023-04-27T21:25:53.988Z,99906.72
2023-04-27T21:28:29.553Z,99919.09
2023-04-27T21:31:01.355Z,99906.44
2023-04-27T21:33:39.062Z,99914.53
2023-04-27T21:36:09.123Z,99917.19
2023-04-27T21:38:43.809Z,99914.81
2023-04-27T21:41:13.572Z,99909.47
2023-04-27T21:43:45.288Z,99903.97
2023-04-27T21:46:14.171Z,99909.19
2023-04-27T21:48:43.985Z,99907.28
2023-04-27T21:51:14.495Z,99913.59
2023-04-27T21:53:57.613Z,99918.34
2023-04-27T21:56:28.689Z,99920.81
2023-04-27T21:59:02.970Z,99920.53
2023-04-27T22:01:42.949Z,99922.63
2023-04-27T22:04:14.861Z,99922.84
2023-04-27T22:06:46.366Z,99926.38
2023-04-27T22:09:29.558Z,99925.78
2023-04-27T22:11:57.742Z,99925.81
2023-04-27T22:14:34.753Z,99924.94
2023-04-27T22:17:08.483Z,99921.06
2023-04-27T22:19:37.951Z,99934.06
2023-04-27T22:22:09.979Z,99930.47
2023-04-27T22:24:58.679Z,99929.66
2023-04-27T22:27:35.300Z,99931.19
2023-04-27T22:30:20.425Z,99926.94
2023-04-27T22:32:49.998Z,99933.97
2023-04-27T22:35:28.186Z,99921.31
2023-04-27T22:37:58.555Z,99926.38
2023-04-27T22:40:31.762Z,99919.78
2023-04-27T22:43:03.102Z,99910.13
2023-04-27T22:45:36.123Z,99913.81
2023-04-27T22:48:09.919Z,99914.56
2023-04-27T22:50:39.394Z,99914.44
2023-04-27T22:53:08.246Z,99906.88
2023-04-27T22:55:52.461Z,99903.16
2023-04-27T22:58:21.160Z,99905.97
2023-04-27T23:00:52.143Z,99910.69
2023-04-27T23:03:24.061Z,99903.34
2023-04-27T23:05:54.901Z,99899.72
2023-04-27T23:08:26.617Z,99900.00
2023-04-27T23:10:58.656Z,99894.50
2023-04-27T23:13:31.566Z,99893.38
2023-04-27T23:16:01.758Z,99887.06
2023-04-27T23:18:33.196Z,99887.75
2023-04-27T23:21:02.780Z,99889.72
2023-04-27T23:23:39.609Z,99896.75
2023-04-27T23:26:18.311Z,99884.66
2023-04-27T23:28:56.287Z,99879.03
2023-04-27T23:31:26.590Z,99890.00
2023-04-27T23:34:04.434Z,99890.59
2023-04-27T23:36:33.953Z,99897.06
2023-04-27T23:39:13.132Z,99887.34
2023-04-27T23:41:47.659Z,99888.75
2023-04-27T23:44:15.992Z,99895.47
2023-04-27T23:46:52.134Z,99896.03
2023-04-27T23:49:23.840Z,99891.25
2023-04-27T23:52:01.133Z,99890.59
2023-04-27T23:54:36.155Z,99889.28
2023-04-27T23:57:14.252Z,99895.63
2023-04-27T23:59:51.292Z,99892.66
